createdAt,value
2022-08-23T00:00:14.168Z,3.45
2022-08-23T00:02:45.332Z,3.38
2022-08-23T00:05:16.818Z,4.05
2022-08-23T00:07:45.552Z,3.53
2022-08-23T00:10:17.997Z,3.78
2022-08-23T00:12:50.370Z,3.85
2022-08-23T00:15:20.557Z,4.00
2022-08-23T00:17:51.398Z,4.20
2022-08-23T00:20:23.303Z,4.53
2022-08-23T00:22:52.476Z,4.35
2022-08-23T00:25:26.957Z,3.83
2022-08-23T00:27:57.018Z,3.80
2022-08-23T00:30:31.269Z,3.65
2022-08-23T00:32:58.504Z,3.85
2022-08-23T00:35:30.587Z,3.42
2022-08-23T00:38:32.371Z,3.85
2022-08-23T00:41:00.072Z,3.80
2022-08-23T00:43:58.838Z,3.57
2022-08-23T00:47:19.828Z,3.25
2022-08-23T00:49:54.209Z,3.38
2022-08-23T00:52:41.500Z,3.17
2022-08-23T00:55:10.124Z,3.42
2022-08-23T00:58:01.365Z,3.15
2022-08-23T01:00:32.718Z,3.70
2022-08-23T01:03:04.763Z,3.78
2022-08-23T01:06:01.535Z,3.20
2022-08-23T01:08:35.496Z,3.92
2022-08-23T01:11:17.355Z,2.55
2022-08-23T01:14:08.855Z,3.15
2022-08-23T01:16:53.445Z,3.90
2022-08-23T01:19:55.598Z,4.25
2022-08-23T01:22:58.452Z,4.20
2022-08-23T01:25:31.538Z,3.85
2022-08-23T01:28:04.100Z,3.72
2022-08-23T01:33:22.349Z,5.22
2022-08-23T01:35:58.176Z,5.32
2022-08-23T01:38:30.418Z,3.70
2022-08-23T01:41:02.629Z,3.78
2022-08-23T01:43:34.090Z,4.15
2022-08-23T01:46:20.712Z,3.58
2022-08-23T01:48:53.189Z,3.75
2022-08-23T01:51:25.228Z,4.65
2022-08-23T01:53:56.865Z,4.22
2022-08-23T01:56:39.055Z,5.00
2022-08-23T01:59:15.725Z,4.30
2022-08-23T02:01:51.120Z,4.28
2022-08-23T02:04:18.638Z,4.32
2022-08-23T02:06:50.894Z,4.15
2022-08-23T02:09:29.600Z,4.10
2022-08-23T02:12:05.106Z,3.60
2022-08-23T02:14:37.786Z,3.70
2022-08-23T02:17:12.764Z,3.90
2022-08-23T02:19:42.210Z,3.72
2022-08-23T02:22:13.893Z,4.47
2022-08-23T02:24:56.087Z,4.88
2022-08-23T02:27:27.234Z,4.90
2022-08-23T02:29:59.136Z,4.65
2022-08-23T02:32:29.875Z,3.83
2022-08-23T02:35:05.202Z,3.97
2022-08-23T02:37:39.017Z,4.20
2022-08-23T02:40:09.453Z,4.25
2022-08-23T02:42:42.224Z,5.90
2022-08-23T02:45:13.311Z,4.88
2022-08-23T02:47:49.238Z,5.45
2022-08-23T02:50:31.228Z,5.50
2022-08-23T02:53:03.622Z,5.15
2022-08-23T02:55:35.844Z,5.20
2022-08-23T02:58:08.185Z,5.65
2022-08-23T03:00:36.882Z,4.68
2022-08-23T03:03:08.059Z,4.88
2022-08-23T03:05:39.957Z,4.15
2022-08-23T03:08:11.101Z,4.93
2022-08-23T03:10:50.461Z,4.68
2022-08-23T03:13:18.457Z,4.28
2022-08-23T03:15:50.398Z,5.13
2022-08-23T03:18:21.023Z,5.35
2022-08-23T03:20:54.152Z,5.32
2022-08-23T03:23:24.916Z,5.20
2022-08-23T03:25:55.590Z,3.92
2022-08-23T03:28:32.209Z,3.90
2022-08-23T03:31:03.440Z,4.20
2022-08-23T03:33:35.582Z,3.80
2022-08-23T03:36:11.648Z,3.58
2022-08-23T03:38:42.773Z,4.15
2022-08-23T03:41:15.221Z,3.80
2022-08-23T03:43:45.236Z,4.88
2022-08-23T03:46:34.181Z,4.70
2022-08-23T03:49:04.820Z,4.68
2022-08-23T03:51:45.763Z,3.75
2022-08-23T03:54:17.323Z,4.13
2022-08-23T03:57:08.680Z,3.70
2022-08-23T03:59:40.737Z,3.72
2022-08-23T04:02:14.431Z,3.83
2022-08-23T04:04:45.310Z,3.53
2022-08-23T04:07:33.361Z,3.50
2022-08-23T04:10:05.940Z,3.60
2022-08-23T04:12:40.076Z,3.72
2022-08-23T04:15:16.174Z,3.90
2022-08-23T04:17:46.097Z,4.03
2022-08-23T04:20:19.272Z,3.22
2022-08-23T04:22:57.752Z,3.20
2022-08-23T04:25:33.539Z,3.58
2022-08-23T04:28:09.384Z,3.70
2022-08-23T04:30:40.037Z,3.25
2022-08-23T04:33:14.169Z,3.38
2022-08-23T04:35:46.468Z,4.32
2022-08-23T04:38:25.111Z,5.00
2022-08-23T04:41:28.188Z,6.22
2022-08-23T04:44:18.099Z,4.45
2022-08-23T04:46:50.772Z,3.80
2022-08-23T04:49:21.655Z,4.28
2022-08-23T04:52:01.424Z,4.18
2022-08-23T04:54:31.928Z,4.00
2022-08-23T04:57:28.477Z,3.92
2022-08-23T04:59:57.517Z,3.90
2022-08-23T05:02:28.525Z,3.58
2022-08-23T05:04:59.886Z,4.20
2022-08-23T05:07:41.758Z,5.15
2022-08-23T05:10:20.489Z,4.90
2022-08-23T05:12:58.237Z,5.20
2022-08-23T05:15:28.117Z,5.28
2022-08-23T05:18:06.250Z,4.13
2022-08-23T05:20:39.916Z,4.13
2022-08-23T05:23:10.538Z,4.50
2022-08-23T05:25:58.878Z,4.45
2022-08-23T05:28:36.709Z,4.80
2022-08-23T05:31:33.257Z,4.97
2022-08-23T05:34:07.577Z,5.65
2022-08-23T05:36:57.105Z,5.05
2022-08-23T05:39:37.070Z,6.38
2022-08-23T05:42:16.252Z,5.72
2022-08-23T05:44:52.121Z,5.88
2022-08-23T05:47:24.971Z,6.70
2022-08-23T05:50:34.342Z,6.40
2022-08-23T05:53:06.621Z,5.82
2022-08-23T05:55:36.545Z,5.80
2022-08-23T05:58:18.352Z,6.30
2022-08-23T06:00:53.841Z,6.05
2022-08-23T06:03:26.295Z,6.75
2022-08-23T06:05:58.975Z,6.00
2022-08-23T06:08:31.021Z,6.53
2022-08-23T06:11:25.030Z,6.85
2022-08-23T06:14:02.242Z,6.63
2022-08-23T06:16:37.084Z,5.93
2022-08-23T06:19:08.464Z,5.85
2022-08-23T06:24:43.146Z,5.53
2022-08-23T06:27:18.949Z,5.78
2022-08-23T06:29:50.169Z,6.53
2022-08-23T06:32:37.472Z,6.13
2022-08-23T06:35:38.223Z,7.30
2022-08-23T06:38:37.580Z,8.00
2022-08-23T06:41:28.895Z,6.93
2022-08-23T06:44:26.212Z,8.13
2022-08-23T06:47:14.176Z,10.10
2022-08-23T06:49:54.652Z,8.93
2022-08-23T06:52:52.333Z,8.00
2022-08-23T06:55:31.667Z,6.72
2022-08-23T06:58:18.470Z,7.03
2022-08-23T07:01:51.822Z,7.28
2022-08-23T07:04:33.065Z,6.25
2022-08-23T07:07:44.155Z,6.68
2022-08-23T07:10:16.831Z,7.80
2022-08-23T07:12:50.623Z,5.55
2022-08-23T07:15:23.289Z,6.30
2022-08-23T07:17:54.242Z,5.60
2022-08-23T07:20:31.923Z,6.40
2022-08-23T07:23:01.582Z,6.78
2022-08-23T07:25:32.455Z,5.80
2022-08-23T07:28:11.902Z,5.80
2022-08-23T07:30:45.295Z,6.10
2022-08-23T07:33:18.577Z,6.50
2022-08-23T07:36:18.662Z,7.28
2022-08-23T07:39:11.477Z,6.43
2022-08-23T07:41:38.846Z,7.85
2022-08-23T07:44:10.117Z,6.07
2022-08-23T07:46:46.865Z,7.18
2022-08-23T07:49:18.324Z,8.45
2022-08-23T07:51:52.131Z,6.72
2022-08-23T07:54:25.896Z,7.63
2022-08-23T07:57:11.625Z,6.55
2022-08-23T08:00:11.525Z,7.15
2022-08-23T08:03:05.775Z,7.50
2022-08-23T08:06:17.834Z,7.05
2022-08-23T08:09:09.105Z,6.80
2022-08-23T08:11:43.786Z,7.03
2022-08-23T08:14:19.718Z,7.03
2022-08-23T08:17:32.837Z,7.13
2022-08-23T08:20:24.430Z,6.85
2022-08-23T08:23:13.324Z,7.15
2022-08-23T08:26:09.870Z,7.53
2022-08-23T08:28:39.230Z,6.55
2022-08-23T08:31:18.439Z,7.07
2022-08-23T08:33:48.252Z,7.45
2022-08-23T08:36:53.458Z,6.80
2022-08-23T08:39:38.009Z,7.20
2022-08-23T08:42:46.541Z,7.80
2022-08-23T08:45:30.259Z,7.80
2022-08-23T08:48:18.923Z,7.82
2022-08-23T08:51:01.698Z,7.25
2022-08-23T08:53:40.381Z,7.38
2022-08-23T08:56:33.514Z,8.32
2022-08-23T08:59:48.074Z,8.75
2022-08-23T09:02:32.872Z,7.73
2022-08-23T09:05:14.682Z,7.55
2022-08-23T09:08:19.255Z,7.70
2022-08-23T09:11:28.443Z,8.05
2022-08-23T09:14:19.097Z,8.85
2022-08-23T09:17:05.540Z,8.25
2022-08-23T09:19:40.960Z,8.10
2022-08-23T09:22:40.093Z,10.48
2022-08-23T09:25:18.900Z,8.05
2022-08-23T09:27:58.628Z,10.57
2022-08-23T09:30:48.243Z,7.10
2022-08-23T09:33:19.023Z,8.15
2022-08-23T09:36:22.597Z,7.60
2022-08-23T09:39:31.550Z,9.35
2022-08-23T09:42:31.386Z,8.43
2022-08-23T09:45:03.171Z,6.45
2022-08-23T09:47:44.124Z,7.25
2022-08-23T09:50:50.443Z,6.78
2022-08-23T09:53:31.349Z,6.90
2022-08-23T09:56:28.803Z,7.80
2022-08-23T09:58:59.048Z,6.32
2022-08-23T10:01:54.441Z,6.22
2022-08-23T10:04:40.785Z,7.65
2022-08-23T10:07:43.904Z,6.35
2022-08-23T10:10:54.519Z,5.95
2022-08-23T10:13:36.171Z,6.88
2022-08-23T10:16:31.990Z,6.10
2022-08-23T10:19:41.044Z,5.88
2022-08-23T10:22:25.465Z,4.93
2022-08-23T10:25:59.171Z,6.03
2022-08-23T10:29:07.570Z,6.72
2022-08-23T10:32:07.704Z,6.82
2022-08-23T10:35:06.930Z,5.05
2022-08-23T10:38:13.288Z,4.57
2022-08-23T10:41:03.013Z,5.20
2022-08-23T10:43:59.585Z,6.75
2022-08-23T10:46:33.247Z,6.15
2022-08-23T10:49:09.615Z,5.35
2022-08-23T10:51:53.475Z,4.93
2022-08-23T10:55:00.354Z,4.00
2022-08-23T10:57:54.397Z,4.22
2022-08-23T11:00:50.902Z,4.68
2022-08-23T11:03:43.380Z,5.32
2022-08-23T11:06:42.209Z,6.10
2022-08-23T11:09:33.542Z,5.30
2022-08-23T11:12:24.175Z,4.80
2022-08-23T11:15:14.237Z,5.93
2022-08-23T11:18:00.036Z,6.35
2022-08-23T11:20:56.353Z,6.57
2022-08-23T11:23:46.845Z,6.38
2022-08-23T11:26:44.501Z,6.80
2022-08-23T11:29:34.371Z,7.88
2022-08-23T11:32:44.778Z,5.78
2022-08-23T11:35:46.388Z,5.50
2022-08-23T11:38:40.721Z,6.72
2022-08-23T11:41:20.375Z,6.38
2022-08-23T11:44:09.949Z,6.05
2022-08-23T11:46:57.622Z,6.85
2022-08-23T11:49:52.211Z,7.03
2022-08-23T11:53:23.178Z,5.90
2022-08-23T11:56:28.302Z,5.63
2022-08-23T11:59:38.506Z,7.57
2022-08-23T12:02:44.376Z,8.98
2022-08-23T12:05:45.265Z,5.18
2022-08-23T12:08:13.959Z,6.28
2022-08-23T12:10:46.145Z,6.07
2022-08-23T12:13:32.786Z,5.68
2022-08-23T12:16:24.808Z,6.25
2022-08-23T12:18:59.346Z,9.57
2022-08-23T12:21:56.765Z,8.77
2022-08-23T12:24:58.535Z,6.35
2022-08-23T12:28:00.119Z,7.97
2022-08-23T12:30:46.143Z,10.00
2022-08-23T12:33:48.108Z,8.32
2022-08-23T12:36:35.916Z,5.93
2022-08-23T12:39:29.643Z,6.18
2022-08-23T12:42:09.712Z,8.20
2022-08-23T12:44:42.894Z,7.15
2022-08-23T12:47:23.637Z,8.60
2022-08-23T12:50:15.123Z,7.10
2022-08-23T12:52:55.599Z,8.38
2022-08-23T12:55:34.804Z,7.20
2022-08-23T12:58:05.483Z,7.75
2022-08-23T13:00:54.174Z,8.55
2022-08-23T13:03:36.446Z,7.50
2022-08-23T13:06:15.218Z,9.25
2022-08-23T13:08:57.121Z,6.85
2022-08-23T13:11:35.428Z,8.32
2022-08-23T13:14:26.199Z,6.85
2022-08-23T13:17:25.812Z,7.63
2022-08-23T13:20:26.144Z,7.82
2022-08-23T13:23:20.569Z,8.60
2022-08-23T13:25:54.146Z,8.75
2022-08-23T13:28:27.949Z,8.98
2022-08-23T13:31:22.149Z,7.78
2022-08-23T13:33:57.839Z,8.68
2022-08-23T13:36:30.995Z,7.80
2022-08-23T13:39:06.161Z,8.00
2022-08-23T13:41:39.372Z,8.93
2022-08-23T13:44:18.395Z,7.70
2022-08-23T13:46:48.345Z,6.82
2022-08-23T13:49:31.909Z,8.32
2022-08-23T13:52:33.379Z,9.63
2022-08-23T13:54:53.753Z,9.63
2022-08-23T13:57:29.607Z,9.55
2022-08-23T14:00:03.069Z,9.15
2022-08-23T14:02:53.492Z,9.02
2022-08-23T14:05:25.818Z,8.10
2022-08-23T14:07:55.778Z,9.35
2022-08-23T14:10:44.370Z,8.40
2022-08-23T14:13:17.147Z,8.75
2022-08-23T14:19:17.936Z,9.70
2022-08-23T14:21:29.842Z,8.85
2022-08-23T14:23:59.952Z,9.43
2022-08-23T14:26:31.586Z,9.38
2022-08-23T14:31:43.537Z,9.25
2022-08-23T14:34:15.225Z,8.95
2022-08-23T14:39:35.376Z,9.48
2022-08-23T14:42:10.892Z,10.70
2022-08-23T14:44:42.140Z,9.43
2022-08-23T14:47:10.774Z,10.95
2022-08-23T14:49:39.759Z,10.43
2022-08-23T14:52:10.375Z,10.77
2022-08-23T14:54:42.673Z,10.38
2022-08-23T14:57:24.098Z,11.25
2022-08-23T14:59:53.732Z,10.88
2022-08-23T15:02:26.059Z,11.00
2022-08-23T15:04:57.968Z,10.27
2022-08-23T15:07:29.828Z,9.65
2022-08-23T15:09:59.784Z,10.88
2022-08-23T15:15:25.389Z,10.35
2022-08-23T15:18:00.163Z,9.88
2022-08-23T15:20:34.420Z,10.38
2022-08-23T15:23:05.853Z,10.25
2022-08-23T15:25:41.881Z,11.05
2022-08-23T15:28:32.410Z,10.98
2022-08-23T15:31:05.407Z,10.80
2022-08-23T15:33:34.900Z,11.95
2022-08-23T15:36:08.145Z,10.60
2022-08-23T15:38:39.882Z,12.18
2022-08-23T15:41:08.964Z,11.10
2022-08-23T15:46:27.417Z,10.18
2022-08-23T15:49:03.837Z,10.77
2022-08-23T15:51:41.661Z,9.73
2022-08-23T15:54:13.892Z,10.68
2022-08-23T15:57:01.680Z,15.60
2022-08-23T15:59:43.534Z,10.50
2022-08-23T16:02:15.939Z,10.65
2022-08-23T16:04:45.539Z,9.55
2022-08-23T16:07:23.719Z,9.43
2022-08-23T16:09:53.928Z,10.20
2022-08-23T16:12:24.742Z,11.77
2022-08-23T16:15:02.064Z,10.88
2022-08-23T16:17:33.488Z,14.05
2022-08-23T16:20:05.765Z,12.98
2022-08-23T16:22:37.769Z,11.30
2022-08-23T16:25:09.363Z,11.48
2022-08-23T16:27:43.532Z,10.60
2022-08-23T16:30:15.688Z,9.95
2022-08-23T16:32:46.145Z,11.38
2022-08-23T16:35:19.375Z,9.73
2022-08-23T16:37:49.960Z,10.00
2022-08-23T16:40:21.808Z,10.27
2022-08-23T16:42:52.569Z,8.93
2022-08-23T16:45:25.813Z,11.00
2022-08-23T16:47:59.618Z,13.07
2022-08-23T16:50:29.837Z,10.98
2022-08-23T16:53:03.667Z,10.25
2022-08-23T16:55:38.796Z,10.70
2022-08-23T16:58:08.810Z,8.90
2022-08-23T17:00:40.027Z,12.38
2022-08-23T17:03:10.045Z,12.75
2022-08-23T17:05:44.264Z,13.77
2022-08-23T17:08:15.157Z,13.13
2022-08-23T17:10:48.134Z,11.30
2022-08-23T17:13:21.403Z,12.25
2022-08-23T17:18:23.240Z,15.35
2022-08-23T17:20:51.028Z,17.45
2022-08-23T17:23:19.737Z,23.55
2022-08-23T17:25:51.864Z,16.00
2022-08-23T17:28:24.330Z,16.90
2022-08-23T17:30:57.118Z,16.30
2022-08-23T17:33:28.284Z,17.27
2022-08-23T17:36:00.009Z,15.98
2022-08-23T17:38:28.928Z,17.50
2022-08-23T17:41:02.956Z,16.38
2022-08-23T17:43:34.604Z,14.27
2022-08-23T17:46:04.923Z,14.45
2022-08-23T17:48:37.008Z,14.27
2022-08-23T17:51:05.337Z,14.10
2022-08-23T17:53:36.865Z,14.73
2022-08-23T17:56:11.682Z,14.45
2022-08-23T17:58:44.228Z,14.35
2022-08-23T18:01:14.815Z,15.07
2022-08-23T18:03:45.811Z,24.77
2022-08-23T18:06:17.191Z,24.73
2022-08-23T18:08:50.123Z,19.75
2022-08-23T18:11:20.917Z,16.00
2022-08-23T18:13:52.519Z,14.55
2022-08-23T18:16:23.862Z,17.05
2022-08-23T18:18:52.412Z,19.30
2022-08-23T18:21:28.861Z,14.77
2022-08-23T18:24:04.315Z,14.52
2022-08-23T18:26:51.478Z,14.63
2022-08-23T18:29:23.146Z,13.90
2022-08-23T18:31:55.267Z,15.32
2022-08-23T18:34:24.181Z,14.05
2022-08-23T18:36:56.308Z,16.10
2022-08-23T18:39:31.445Z,17.42
2022-08-23T18:42:07.797Z,21.02
2022-08-23T18:44:37.825Z,19.48
2022-08-23T18:47:09.914Z,20.77
2022-08-23T18:49:41.360Z,17.90
2022-08-23T18:52:11.362Z,16.48
2022-08-23T18:54:41.342Z,14.88
2022-08-23T18:57:09.034Z,13.10
2022-08-23T18:59:46.150Z,12.93
2022-08-23T19:02:13.877Z,12.95
2022-08-23T19:04:45.747Z,13.07
2022-08-23T19:07:14.162Z,12.65
2022-08-23T19:09:45.203Z,12.80
2022-08-23T19:12:23.439Z,13.48
2022-08-23T19:14:54.073Z,12.45
2022-08-23T19:17:27.586Z,14.43
2022-08-23T19:19:59.593Z,13.52
2022-08-23T19:22:30.078Z,12.60
2022-08-23T19:25:00.709Z,13.85
2022-08-23T19:27:34.513Z,13.00
2022-08-23T19:30:09.747Z,13.35
2022-08-23T19:32:44.484Z,12.68
2022-08-23T19:35:16.762Z,14.25
2022-08-23T19:37:48.182Z,14.10
2022-08-23T19:40:20.934Z,14.13
2022-08-23T19:43:03.330Z,13.57
2022-08-23T19:45:32.718Z,14.63
2022-08-23T19:48:06.031Z,15.00
2022-08-23T19:50:35.416Z,14.35
2022-08-23T19:53:08.575Z,13.95
2022-08-23T19:55:43.333Z,15.20
2022-08-23T19:58:16.021Z,15.05
2022-08-23T20:00:47.945Z,16.33
2022-08-23T20:03:16.988Z,16.08
2022-08-23T20:05:45.482Z,16.70
2022-08-23T20:08:15.892Z,17.30
2022-08-23T20:10:45.491Z,16.90
2022-08-23T20:13:12.920Z,16.60
2022-08-23T20:15:42.870Z,17.45
2022-08-23T20:18:14.298Z,17.45
2022-08-23T20:20:44.650Z,17.63
2022-08-23T20:23:35.312Z,17.20
2022-08-23T20:26:04.119Z,18.35
2022-08-23T20:28:35.504Z,16.75
2022-08-23T20:31:23.395Z,17.63
2022-08-23T20:33:56.218Z,16.60
2022-08-23T20:36:30.384Z,18.77
2022-08-23T20:39:02.462Z,16.73
2022-08-23T20:41:46.197Z,16.58
2022-08-23T20:44:17.793Z,16.83
2022-08-23T20:46:53.200Z,16.35
2022-08-23T20:49:25.989Z,16.95
2022-08-23T20:52:02.650Z,17.08
2022-08-23T20:54:33.810Z,17.55
2022-08-23T20:57:06.509Z,16.52
2022-08-23T20:59:35.383Z,16.42
2022-08-23T21:07:18.437Z,16.98
2022-08-23T21:09:53.575Z,16.20
2022-08-23T21:12:23.536Z,16.88
2022-08-23T21:14:54.740Z,16.30
2022-08-23T21:17:25.701Z,17.00
2022-08-23T21:19:54.911Z,17.52
2022-08-23T21:22:32.016Z,16.50
2022-08-23T21:25:06.268Z,17.05
2022-08-23T21:27:37.629Z,18.45
2022-08-23T21:30:10.300Z,18.33
2022-08-23T21:32:40.228Z,18.07
2022-08-23T21:35:13.616Z,18.98
2022-08-23T21:37:43.140Z,18.27
2022-08-23T21:40:15.426Z,18.77
2022-08-23T21:42:49.385Z,20.15
2022-08-23T21:45:19.345Z,18.52
2022-08-23T21:47:50.473Z,19.45
2022-08-23T21:50:20.231Z,19.33
2022-08-23T21:52:56.883Z,19.35
2022-08-23T21:55:30.098Z,19.85
2022-08-23T21:58:05.613Z,19.85
2022-08-23T22:03:22.562Z,14.32
2022-08-23T22:05:50.068Z,19.48
2022-08-23T22:08:19.568Z,19.75
2022-08-23T22:10:57.529Z,19.02
2022-08-23T22:13:29.378Z,19.70
2022-08-23T22:16:04.441Z,19.73
2022-08-23T22:18:32.373Z,20.48
2022-08-23T22:21:04.940Z,20.38
2022-08-23T22:23:35.749Z,21.13
2022-08-23T22:26:26.722Z,19.33
2022-08-23T22:28:57.022Z,20.33
2022-08-23T22:31:29.123Z,20.20
2022-08-23T22:33:58.973Z,18.85
2022-08-23T22:36:30.554Z,19.83
2022-08-23T22:39:02.180Z,21.10
2022-08-23T22:41:33.159Z,19.70
2022-08-23T22:46:48.385Z,19.45
2022-08-23T22:49:19.782Z,19.00
2022-08-23T22:51:54.910Z,19.65
2022-08-23T22:54:29.817Z,18.88
2022-08-23T22:57:04.985Z,19.10
2022-08-23T22:59:41.425Z,19.65
2022-08-23T23:02:16.431Z,19.98
2022-08-23T23:04:51.041Z,18.92
2022-08-23T23:07:40.397Z,19.92
2022-08-23T23:10:11.346Z,19.88
2022-08-23T23:12:40.432Z,19.35
2022-08-23T23:15:12.199Z,19.08
2022-08-23T23:17:41.658Z,19.55
2022-08-23T23:20:31.461Z,19.17
2022-08-23T23:23:03.450Z,18.75
2022-08-23T23:25:39.363Z,18.88
2022-08-23T23:28:10.171Z,19.90
2022-08-23T23:30:39.531Z,18.90
2022-08-23T23:33:09.740Z,20.13
2022-08-23T23:35:39.675Z,18.63
2022-08-23T23:38:11.900Z,18.13
2022-08-23T23:40:41.752Z,19.38
2022-08-23T23:43:14.378Z,19.50
2022-08-23T23:45:42.614Z,19.92
2022-08-23T23:48:13.216Z,19.08
2022-08-23T23:50:47.000Z,18.60
2022-08-23T23:53:20.011Z,18.13
2022-08-23T23:56:00.774Z,18.05
2022-08-23T23:58:29.557Z,16.15
